Terminal Aerodrome Forecast
Issued by NWS Duluth, MN

Home | Current Version | Previous Version | Text Only | Print | Product List | Glossary On
Versions: 1 2 3 4 5 6 7 8 9 10 11 12 13 14 15 16 17 18 19 20 21 22 23 24 25 26
000
FTUS43 KDLH 161900 AAA
TAFDLH
TAF AMD
KDLH 161957Z 1620/1718 34011G15KT 4SM -SN OVC018
      TEMPO 1620/1622 2SM -SN OVC025
     FM162200 33010KT 6SM -SN BKN020 OVC035
     FM170600 32009KT 5SM -SN BKN015 OVC035
     FM171300 35008KT P6SM BKN020 OVC035=

USA.gov is the U.S. government's official web portal to all federal, state and local government web resources and services.